createdAt,value
2017-09-04T00:01:04.524Z,0.00
2017-09-04T00:02:05.852Z,0.00
2017-09-04T00:03:11.683Z,0.00
2017-09-04T00:04:21.006Z,0.00
2017-09-04T00:05:22.519Z,0.00
2017-09-04T00:06:29.008Z,0.00
2017-09-04T00:07:33.860Z,0.00
2017-09-04T00:08:39.241Z,0.00
2017-09-04T00:09:45.664Z,0.00
2017-09-04T00:10:50.264Z,0.00
2017-09-04T00:11:55.900Z,0.00
2017-09-04T00:13:02.023Z,0.00
2017-09-04T00:14:10.018Z,0.00
2017-09-04T00:15:13.131Z,0.00
2017-09-04T00:16:18.039Z,0.00
2017-09-04T00:17:23.566Z,0.00
2017-09-04T00:18:29.025Z,0.00
2017-09-04T00:19:36.031Z,0.00
2017-09-04T00:20:41.028Z,0.00
2017-09-04T00:21:46.029Z,0.00
2017-09-04T00:22:51.698Z,0.00
2017-09-04T00:23:57.070Z,0.00
2017-09-04T00:25:04.569Z,0.00
2017-09-04T00:26:07.910Z,0.00
2017-09-04T00:27:13.465Z,0.00
2017-09-04T00:28:18.921Z,0.00
2017-09-04T00:29:25.042Z,0.00
2017-09-04T00:30:30.025Z,0.00
2017-09-04T00:31:36.305Z,0.00
2017-09-04T00:32:41.080Z,0.00
2017-09-04T00:33:47.238Z,0.00
2017-09-04T00:34:52.192Z,0.00
2017-09-04T00:35:57.947Z,0.00
2017-09-04T00:37:03.786Z,0.00
2017-09-04T00:38:10.053Z,0.00
2017-09-04T00:39:17.064Z,0.00
2017-09-04T00:40:20.094Z,0.00
2017-09-04T00:41:25.361Z,0.00
2017-09-04T00:42:32.091Z,0.00
2017-09-04T00:43:37.141Z,0.00
2017-09-04T00:44:42.708Z,0.00
2017-09-04T00:45:49.083Z,0.00
2017-09-04T00:46:53.588Z,0.00
2017-09-04T00:47:58.578Z,0.00
2017-09-04T00:49:04.112Z,0.00
2017-09-04T00:50:09.857Z,0.00
2017-09-04T00:51:15.243Z,0.00
2017-09-04T00:52:20.639Z,0.00
2017-09-04T00:53:26.386Z,0.00
2017-09-04T00:54:31.917Z,0.00
2017-09-04T00:55:38.099Z,0.00
2017-09-04T00:56:44.119Z,0.00
2017-09-04T00:57:48.510Z,0.00
2017-09-04T00:58:55.583Z,0.00
2017-09-04T01:00:00.094Z,0.00
2017-09-04T01:01:05.165Z,0.00
2017-09-04T01:02:12.124Z,0.00
2017-09-04T01:03:17.088Z,0.00
2017-09-04T01:04:21.652Z,0.00
2017-09-04T01:05:27.778Z,0.00
2017-09-04T01:06:32.998Z,0.00
2017-09-04T01:07:40.608Z,0.00
2017-09-04T01:08:44.414Z,0.00
2017-09-04T01:09:49.205Z,0.00
2017-09-04T01:10:55.421Z,0.00
2017-09-04T01:12:00.457Z,0.00
2017-09-04T01:13:06.061Z,0.00
2017-09-04T01:14:11.585Z,0.00
2017-09-04T01:15:16.928Z,0.00
2017-09-04T01:16:23.108Z,0.00
2017-09-04T01:17:27.888Z,0.00
2017-09-04T01:18:35.114Z,0.00
2017-09-04T01:19:39.718Z,0.00
2017-09-04T01:20:48.115Z,0.00
2017-09-04T01:21:52.116Z,0.00
2017-09-04T01:22:55.669Z,0.00
2017-09-04T01:24:03.627Z,0.00
2017-09-04T01:25:09.128Z,0.00
2017-09-04T01:26:12.815Z,0.00
2017-09-04T01:27:19.237Z,0.00
2017-09-04T01:28:24.626Z,0.00
2017-09-04T01:29:28.896Z,0.00
2017-09-04T01:30:34.575Z,0.00
2017-09-04T01:31:41.910Z,0.00
2017-09-04T01:32:45.583Z,0.00
2017-09-04T01:33:51.871Z,0.00
2017-09-04T01:34:57.232Z,0.00
2017-09-04T01:36:02.640Z,0.00
2017-09-04T01:37:08.295Z,0.00
2017-09-04T01:38:13.960Z,0.00
2017-09-04T01:39:19.140Z,0.00
2017-09-04T01:40:24.141Z,0.00
2017-09-04T01:41:30.310Z,0.00
2017-09-04T01:42:35.870Z,0.00
2017-09-04T01:43:41.445Z,0.00
2017-09-04T01:44:46.301Z,0.00
2017-09-04T01:45:52.870Z,0.00
2017-09-04T01:46:58.629Z,0.00
2017-09-04T01:48:05.037Z,0.00
2017-09-04T01:49:08.583Z,0.00
2017-09-04T01:50:15.662Z,0.00
2017-09-04T01:51:20.717Z,0.00
2017-09-04T01:52:25.860Z,0.00
2017-09-04T01:53:30.690Z,0.00
2017-09-04T01:54:36.215Z,0.00
2017-09-04T01:55:43.163Z,0.00
2017-09-04T01:56:48.193Z,0.00
2017-09-04T01:57:53.666Z,0.00
2017-09-04T01:58:58.845Z,0.00
2017-09-04T02:00:04.670Z,0.00
2017-09-04T02:01:09.440Z,0.00
2017-09-04T02:02:16.453Z,0.00
2017-09-04T02:03:22.177Z,0.00
2017-09-04T02:04:26.902Z,0.00
2017-09-04T02:05:32.178Z,0.00
2017-09-04T02:06:38.911Z,0.00
2017-09-04T02:07:43.856Z,0.00
2017-09-04T02:08:49.758Z,0.00
2017-09-04T02:09:54.185Z,0.00
2017-09-04T02:10:59.872Z,0.00
2017-09-04T02:12:04.741Z,0.00
2017-09-04T02:13:10.374Z,0.00
2017-09-04T02:14:15.851Z,0.00
2017-09-04T02:15:21.380Z,0.00
2017-09-04T02:16:27.024Z,0.00
2017-09-04T02:17:35.694Z,0.00
2017-09-04T02:18:38.699Z,0.00
2017-09-04T02:19:43.574Z,0.00
2017-09-04T02:20:50.705Z,0.00
2017-09-04T02:21:54.693Z,0.00
2017-09-04T02:23:01.857Z,0.00
2017-09-04T02:24:05.628Z,0.00
2017-09-04T02:25:11.345Z,0.00
2017-09-04T02:26:16.654Z,0.00
2017-09-04T02:27:22.323Z,0.00
2017-09-04T02:28:27.854Z,0.00
2017-09-04T02:29:34.817Z,0.00
2017-09-04T02:30:38.831Z,0.00
2017-09-04T02:31:46.773Z,0.00
2017-09-04T02:32:49.982Z,0.00
2017-09-04T02:33:55.468Z,0.00
2017-09-04T02:35:00.957Z,0.00
2017-09-04T02:36:06.490Z,0.00
2017-09-04T02:37:11.939Z,0.00
2017-09-04T02:38:21.822Z,0.00
2017-09-04T02:39:23.103Z,0.00
2017-09-04T02:40:28.767Z,0.00
2017-09-04T02:41:34.329Z,0.00
2017-09-04T02:42:39.751Z,0.00
2017-09-04T02:43:45.756Z,0.00
2017-09-04T02:44:53.235Z,0.00
2017-09-04T02:45:56.745Z,0.00
2017-09-04T02:47:03.237Z,0.00
2017-09-04T02:48:08.737Z,0.00
2017-09-04T02:49:13.013Z,0.00
2017-09-04T02:50:19.241Z,0.00
2017-09-04T02:51:24.326Z,0.00
2017-09-04T02:52:30.853Z,0.00
2017-09-04T02:53:35.167Z,0.00
2017-09-04T02:54:41.558Z,0.00
2017-09-04T02:55:46.759Z,0.00
2017-09-04T02:56:52.256Z,0.00
2017-09-04T02:57:57.757Z,0.00
2017-09-04T02:59:03.348Z,0.00
2017-09-04T03:00:08.903Z,0.00
2017-09-04T03:01:13.899Z,0.00
2017-09-04T03:02:19.311Z,0.00
2017-09-04T03:03:25.450Z,0.00
2017-09-04T03:04:31.397Z,0.00
2017-09-04T03:05:37.060Z,0.00
2017-09-04T03:06:42.280Z,0.00
2017-09-04T03:07:47.013Z,0.00
2017-09-04T03:08:53.500Z,0.00
2017-09-04T03:09:58.262Z,0.00
2017-09-04T03:11:04.331Z,0.00
2017-09-04T03:12:09.196Z,0.00
2017-09-04T03:13:14.715Z,0.00
2017-09-04T03:14:22.404Z,0.00
2017-09-04T03:15:26.321Z,0.00
2017-09-04T03:16:32.314Z,0.00
2017-09-04T03:17:36.918Z,0.00
2017-09-04T03:18:43.025Z,0.00
2017-09-04T03:19:48.922Z,0.00
2017-09-04T03:20:53.548Z,0.00
2017-09-04T03:22:00.060Z,0.00
2017-09-04T03:23:05.288Z,0.00
2017-09-04T03:24:10.943Z,0.00
2017-09-04T03:25:15.746Z,0.00
2017-09-04T03:26:21.160Z,0.00
2017-09-04T03:27:27.295Z,0.00
2017-09-04T03:28:32.896Z,0.00
2017-09-04T03:29:38.490Z,0.00
2017-09-04T03:30:44.080Z,0.00
2017-09-04T03:31:48.959Z,0.00
2017-09-04T03:32:54.541Z,0.00
2017-09-04T03:34:00.302Z,0.00
2017-09-04T03:35:05.605Z,0.00
2017-09-04T03:36:11.811Z,0.00
2017-09-04T03:37:17.417Z,0.00
2017-09-04T03:38:24.810Z,0.00
2017-09-04T03:39:28.819Z,0.00
2017-09-04T03:40:33.571Z,0.00
2017-09-04T03:41:38.571Z,0.00
2017-09-04T03:42:45.110Z,0.00
2017-09-04T03:43:50.442Z,0.00
2017-09-04T03:44:56.317Z,0.00
2017-09-04T03:46:01.706Z,0.00
2017-09-04T03:47:07.095Z,0.00
2017-09-04T03:48:13.842Z,0.00
2017-09-04T03:49:17.361Z,0.00
2017-09-04T03:50:23.110Z,0.00
2017-09-04T03:51:29.039Z,0.00
2017-09-04T03:52:35.901Z,0.00
2017-09-04T03:53:39.531Z,0.00
2017-09-04T03:54:45.147Z,0.00
2017-09-04T03:55:51.728Z,0.00
2017-09-04T03:56:56.924Z,0.00
2017-09-04T03:58:01.628Z,0.00
2017-09-04T03:59:07.401Z,0.00
2017-09-04T04:00:15.380Z,0.00
2017-09-04T04:01:18.988Z,0.00
2017-09-04T04:02:24.479Z,0.00
2017-09-04T04:03:29.854Z,0.00
2017-09-04T04:04:35.685Z,0.00
2017-09-04T04:05:42.533Z,0.00
2017-09-04T04:06:46.545Z,0.00
2017-09-04T04:07:51.504Z,0.00
2017-09-04T04:08:57.104Z,0.00
2017-09-04T04:10:04.852Z,0.00
2017-09-04T04:11:08.891Z,0.00
2017-09-04T04:12:16.889Z,0.00
2017-09-04T04:13:19.217Z,0.00
2017-09-04T04:14:24.649Z,4.00
2017-09-04T04:15:30.245Z,4.00
2017-09-04T04:16:36.627Z,4.00
2017-09-04T04:17:41.999Z,4.00
2017-09-04T04:18:47.567Z,8.00
2017-09-04T04:19:52.972Z,4.00
2017-09-04T04:20:58.369Z,4.00
2017-09-04T04:22:04.444Z,12.00
2017-09-04T04:23:09.027Z,12.00
2017-09-04T04:24:15.075Z,16.00
2017-09-04T04:25:20.108Z,20.00
2017-09-04T04:26:26.481Z,24.00
2017-09-04T04:27:31.064Z,28.00
2017-09-04T04:28:37.385Z,36.00
2017-09-04T04:29:42.197Z,44.00
2017-09-04T04:30:48.416Z,48.00
2017-09-04T04:31:53.889Z,56.00
2017-09-04T04:32:59.699Z,68.00
2017-09-04T04:34:05.003Z,84.00
2017-09-04T04:35:11.394Z,104.00
2017-09-04T04:36:15.476Z,128.00
2017-09-04T04:37:20.962Z,152.00
2017-09-04T04:38:26.426Z,180.00
2017-09-04T04:39:32.526Z,208.00
2017-09-04T04:40:37.917Z,240.00
2017-09-04T04:41:43.259Z,264.00
2017-09-04T04:42:48.636Z,292.00
2017-09-04T04:43:54.151Z,320.00
2017-09-04T04:45:00.410Z,356.00
2017-09-04T04:46:05.347Z,392.00
2017-09-04T04:47:10.788Z,428.00
2017-09-04T04:48:16.915Z,472.00
2017-09-04T04:49:21.885Z,520.00
2017-09-04T04:50:27.460Z,568.00
2017-09-04T04:51:33.572Z,608.00
2017-09-04T04:52:38.543Z,648.00
2017-09-04T04:53:44.116Z,700.00
2017-09-04T04:54:49.917Z,772.00
2017-09-04T04:55:55.572Z,856.00
2017-09-04T04:57:00.977Z,956.00
2017-09-04T04:58:06.188Z,1048.00
2017-09-04T04:59:13.000Z,1120.00
2017-09-04T05:00:17.107Z,1196.00
2017-09-04T05:01:22.817Z,1260.00
2017-09-04T05:02:29.288Z,1296.00
2017-09-04T05:03:34.930Z,1356.00
2017-09-04T05:04:39.296Z,1448.00
2017-09-04T05:05:44.951Z,1572.00
2017-09-04T05:06:50.573Z,1704.00
2017-09-04T05:07:55.960Z,1796.00
2017-09-04T05:09:01.466Z,1828.00
2017-09-04T05:10:07.033Z,1856.00
2017-09-04T05:11:13.443Z,1876.00
2017-09-04T05:12:18.940Z,1944.00
2017-09-04T05:13:24.447Z,2044.00
2017-09-04T05:14:29.286Z,2004.00
2017-09-04T05:15:35.713Z,2040.00
2017-09-04T05:16:41.078Z,2144.00
2017-09-04T05:17:46.516Z,2288.00
2017-09-04T05:18:51.969Z,2488.00
2017-09-04T05:19:57.472Z,2636.00
2017-09-04T05:21:03.112Z,2760.00
2017-09-04T05:22:07.782Z,2924.00
2017-09-04T05:23:13.337Z,3056.00
2017-09-04T05:24:21.555Z,3168.00
2017-09-04T05:25:24.547Z,3288.00
2017-09-04T05:26:29.912Z,3408.00
2017-09-04T05:27:36.087Z,3516.00
2017-09-04T05:28:41.279Z,3644.00
2017-09-04T05:29:46.777Z,3752.00
2017-09-04T05:30:52.397Z,3848.00
2017-09-04T05:31:58.468Z,3896.00
2017-09-04T05:33:03.324Z,3876.00
2017-09-04T05:34:08.916Z,3856.00
2017-09-04T05:35:14.402Z,3820.00
2017-09-04T05:36:19.847Z,3696.00
2017-09-04T05:37:26.119Z,3560.00
2017-09-04T05:38:31.740Z,3556.00
2017-09-04T05:39:37.479Z,3496.00
2017-09-04T05:40:42.837Z,3392.00
2017-09-04T05:41:47.566Z,3384.00
2017-09-04T05:42:53.210Z,3356.00
2017-09-04T05:43:58.622Z,3280.00
2017-09-04T05:45:04.149Z,3292.00
2017-09-04T05:46:10.490Z,3424.00
2017-09-04T05:47:16.105Z,3472.00
2017-09-04T05:48:20.820Z,3508.00
2017-09-04T05:49:26.333Z,3628.00
2017-09-04T05:50:31.821Z,3832.00
2017-09-04T05:51:37.393Z,4016.00
2017-09-04T05:52:43.050Z,4096.00
2017-09-04T05:53:49.000Z,4144.00
2017-09-04T05:54:54.044Z,4188.00
2017-09-04T05:55:59.444Z,4284.00
2017-09-04T05:57:04.998Z,4464.00
2017-09-04T05:58:10.650Z,4556.00
2017-09-04T05:59:17.032Z,4496.00
2017-09-04T06:00:22.570Z,4416.00
2017-09-04T06:01:28.010Z,4276.00
2017-09-04T06:02:33.518Z,4048.00
2017-09-04T06:03:38.313Z,3960.00
2017-09-04T06:04:44.514Z,3936.00
2017-09-04T06:05:49.385Z,3940.00
2017-09-04T06:06:54.954Z,3984.00
2017-09-04T06:08:01.031Z,3916.00
2017-09-04T06:09:05.936Z,3896.00
2017-09-04T06:10:11.543Z,3888.00
2017-09-04T06:11:16.949Z,3884.00
2017-09-04T06:12:23.128Z,4028.00
2017-09-04T06:13:28.013Z,4208.00
2017-09-04T06:14:33.601Z,4116.00
2017-09-04T06:15:40.034Z,4148.00
2017-09-04T06:16:44.686Z,4188.00
2017-09-04T06:17:50.272Z,4316.00
2017-09-04T06:18:55.976Z,4464.00
2017-09-04T06:20:02.135Z,4564.00
2017-09-04T06:21:07.684Z,4784.00
2017-09-04T06:22:12.367Z,4772.00
2017-09-04T06:23:18.775Z,4788.00
2017-09-04T06:24:24.233Z,4868.00
2017-09-04T06:25:28.903Z,4952.00
2017-09-04T06:26:34.586Z,4916.00
2017-09-04T06:27:40.072Z,4940.00
2017-09-04T06:28:45.599Z,4828.00
2017-09-04T06:29:51.229Z,4524.00
2017-09-04T06:30:56.611Z,4448.00
2017-09-04T06:32:03.560Z,4608.00
2017-09-04T06:33:07.649Z,4648.00
2017-09-04T06:34:14.178Z,4516.00
2017-09-04T06:35:18.776Z,4244.00
2017-09-04T06:36:24.308Z,4456.00
2017-09-04T06:37:29.865Z,4744.00
2017-09-04T06:38:35.462Z,4960.00
2017-09-04T06:39:40.923Z,4848.00
2017-09-04T06:40:47.299Z,4708.00
2017-09-04T06:41:52.571Z,4692.00
2017-09-04T06:42:57.461Z,4736.00
2017-09-04T06:44:03.573Z,4836.00
2017-09-04T06:45:09.083Z,4704.00
2017-09-04T06:46:14.054Z,4620.00
2017-09-04T06:47:20.191Z,4736.00
2017-09-04T06:48:27.080Z,4756.00
2017-09-04T06:49:31.581Z,4808.00
2017-09-04T06:50:36.265Z,4940.00
2017-09-04T06:51:41.782Z,5180.00
2017-09-04T06:52:49.088Z,5232.00
2017-09-04T06:53:52.858Z,5444.00
2017-09-04T06:54:58.386Z,5652.00
2017-09-04T06:56:03.936Z,5840.00
2017-09-04T06:57:09.607Z,6060.00
2017-09-04T06:58:15.002Z,6304.00
2017-09-04T06:59:20.612Z,6200.00
2017-09-04T07:00:26.787Z,6264.00
2017-09-04T07:01:32.141Z,6360.00
2017-09-04T07:02:37.230Z,6412.00
2017-09-04T07:03:43.632Z,6220.00
2017-09-04T07:04:48.296Z,5960.00
2017-09-04T07:05:54.605Z,6076.00
2017-09-04T07:07:00.251Z,5952.00
2017-09-04T07:08:04.865Z,5960.00
2017-09-04T07:09:10.303Z,6200.00
2017-09-04T07:10:17.611Z,6300.00
2017-09-04T07:11:23.112Z,6596.00
2017-09-04T07:12:26.970Z,6760.00
2017-09-04T07:13:32.541Z,6864.00
2017-09-04T07:14:39.118Z,6880.00
2017-09-04T07:15:44.143Z,6896.00
2017-09-04T07:16:50.125Z,6964.00
2017-09-04T07:17:55.122Z,7112.00
2017-09-04T07:19:00.251Z,7164.00
2017-09-04T07:20:06.775Z,7204.00
2017-09-04T07:21:11.631Z,7236.00
2017-09-04T07:22:17.196Z,7292.00
2017-09-04T07:23:22.499Z,7368.00
2017-09-04T07:24:27.925Z,7440.00
2017-09-04T07:25:33.436Z,7524.00
2017-09-04T07:26:39.868Z,7628.00
2017-09-04T07:27:45.340Z,7712.00
2017-09-04T07:28:50.812Z,7676.00
2017-09-04T07:29:55.550Z,7788.00
2017-09-04T07:31:01.120Z,8072.00
2017-09-04T07:32:07.169Z,8124.00
2017-09-04T07:33:12.152Z,8196.00
2017-09-04T07:34:18.170Z,8204.00
2017-09-04T07:35:23.226Z,8224.00
2017-09-04T07:36:30.151Z,8164.00
2017-09-04T07:37:34.656Z,8100.00
2017-09-04T07:38:40.933Z,8136.00
2017-09-04T07:39:45.314Z,8076.00
2017-09-04T07:40:51.656Z,8248.00
2017-09-04T07:41:56.384Z,8404.00
2017-09-04T07:43:01.994Z,8676.00
2017-09-04T07:44:07.591Z,8900.00
2017-09-04T07:45:13.059Z,8912.00
2017-09-04T07:46:19.695Z,8832.00
2017-09-04T07:47:24.106Z,8792.00
2017-09-04T07:48:29.786Z,9000.00
2017-09-04T07:49:35.862Z,9220.00
2017-09-04T07:50:41.341Z,9296.00
2017-09-04T07:51:47.678Z,9236.00
2017-09-04T07:52:51.908Z,9112.00
2017-09-04T07:53:57.691Z,9048.00
2017-09-04T07:55:02.870Z,9092.00
2017-09-04T07:56:08.421Z,9064.00
2017-09-04T07:57:14.863Z,9036.00
2017-09-04T07:58:20.368Z,8956.00
2017-09-04T07:59:25.005Z,8892.00
2017-09-04T08:00:30.495Z,8888.00
2017-09-04T08:01:36.543Z,8800.00
2017-09-04T08:02:41.752Z,8736.00
2017-09-04T08:03:47.693Z,8668.00
2017-09-04T08:04:52.697Z,8576.00
2017-09-04T08:05:58.262Z,8372.00
2017-09-04T08:07:04.102Z,8368.00
2017-09-04T08:08:09.278Z,8300.00
2017-09-04T08:09:16.201Z,8256.00
2017-09-04T08:10:21.724Z,8188.00
2017-09-04T08:11:25.917Z,8036.00
2017-09-04T08:12:32.217Z,7948.00
2017-09-04T08:13:38.721Z,7760.00
2017-09-04T08:14:42.523Z,7620.00
2017-09-04T08:15:48.048Z,7340.00
2017-09-04T08:16:53.610Z,7020.00
2017-09-04T08:17:59.063Z,6892.00
2017-09-04T08:19:04.666Z,6772.00
2017-09-04T08:20:10.147Z,6700.00
2017-09-04T08:21:15.660Z,6684.00
2017-09-04T08:22:21.829Z,6716.00
2017-09-04T08:23:27.336Z,6804.00
2017-09-04T08:24:32.726Z,6908.00
2017-09-04T08:25:37.805Z,7120.00
2017-09-04T08:26:43.546Z,7440.00
2017-09-04T08:27:49.015Z,7632.00
2017-09-04T08:28:55.337Z,7608.00
2017-09-04T08:30:00.944Z,7740.00
2017-09-04T08:31:05.545Z,7916.00
2017-09-04T08:32:11.069Z,8104.00
2017-09-04T08:33:17.251Z,8344.00
2017-09-04T08:34:22.068Z,8340.00
2017-09-04T08:35:27.568Z,8152.00
2017-09-04T08:36:33.186Z,7568.00
2017-09-04T08:37:39.744Z,7320.00
2017-09-04T08:38:44.747Z,7284.00
2017-09-04T08:39:49.943Z,7236.00
2017-09-04T08:40:55.407Z,7212.00
2017-09-04T08:42:01.252Z,7192.00
2017-09-04T08:43:07.255Z,7004.00
2017-09-04T08:44:12.789Z,7140.00
2017-09-04T08:45:17.518Z,7044.00
2017-09-04T08:46:23.013Z,7136.00
2017-09-04T08:47:29.266Z,7072.00
2017-09-04T08:48:34.143Z,7124.00
2017-09-04T08:49:39.600Z,7152.00
2017-09-04T08:50:45.100Z,7144.00
2017-09-04T08:51:50.764Z,7132.00
2017-09-04T08:52:56.248Z,7156.00
2017-09-04T08:54:02.344Z,7220.00
2017-09-04T08:55:07.342Z,7268.00
2017-09-04T08:56:12.846Z,7352.00
2017-09-04T08:57:18.364Z,7460.00
2017-09-04T08:58:23.910Z,7552.00
2017-09-04T08:59:29.842Z,7584.00
2017-09-04T09:00:35.131Z,7560.00
2017-09-04T09:01:42.282Z,7524.00
2017-09-04T09:02:47.804Z,7536.00
2017-09-04T09:03:52.498Z,7556.00
2017-09-04T09:04:57.789Z,7608.00
2017-09-04T09:06:03.293Z,7652.00
2017-09-04T09:07:08.206Z,7684.00
2017-09-04T09:08:14.293Z,7800.00
2017-09-04T09:09:20.315Z,7844.00
2017-09-04T09:10:24.813Z,7824.00
2017-09-04T09:11:30.799Z,7772.00
2017-09-04T09:12:35.933Z,7752.00
2017-09-04T09:13:42.803Z,7800.00
2017-09-04T09:14:46.973Z,7876.00
2017-09-04T09:15:52.443Z,7940.00
2017-09-04T09:16:58.037Z,7964.00
2017-09-04T09:18:03.662Z,7976.00
2017-09-04T09:19:09.203Z,7956.00
2017-09-04T09:20:16.313Z,7976.00
2017-09-04T09:21:21.013Z,8080.00
2017-09-04T09:22:25.747Z,8180.00
2017-09-04T09:23:32.819Z,8304.00
2017-09-04T09:24:36.773Z,8368.00
2017-09-04T09:25:42.823Z,8360.00
2017-09-04T09:26:47.811Z,8392.00
2017-09-04T09:27:53.309Z,8436.00
2017-09-04T09:28:59.016Z,8544.00
2017-09-04T09:30:04.439Z,8576.00
2017-09-04T09:31:10.051Z,8608.00
2017-09-04T09:32:15.514Z,8632.00
2017-09-04T09:33:21.052Z,8660.00
2017-09-04T09:34:26.612Z,8756.00
2017-09-04T09:35:32.228Z,8868.00
2017-09-04T09:36:37.657Z,8956.00
2017-09-04T09:37:43.176Z,9068.00
2017-09-04T09:38:49.345Z,9164.00
2017-09-04T09:39:54.965Z,9224.00
2017-09-04T09:40:59.792Z,9268.00
2017-09-04T09:42:05.849Z,9328.00
2017-09-04T09:43:11.201Z,9412.00
2017-09-04T09:44:16.853Z,9452.00
2017-09-04T09:45:21.918Z,9496.00
2017-09-04T09:46:27.474Z,9468.00
2017-09-04T09:47:33.036Z,9428.00
2017-09-04T09:48:39.564Z,9444.00
2017-09-04T09:49:44.069Z,9480.00
2017-09-04T09:50:49.738Z,9596.00
2017-09-04T09:51:55.879Z,9744.00
2017-09-04T09:53:00.662Z,9928.00
2017-09-04T09:54:06.225Z,10052.00
2017-09-04T09:55:12.372Z,10112.00
2017-09-04T09:56:17.991Z,10144.00
2017-09-04T09:57:22.896Z,10080.00
2017-09-04T09:58:28.412Z,10092.00
2017-09-04T09:59:33.883Z,10164.00
2017-09-04T10:00:39.405Z,10164.00
2017-09-04T10:01:44.959Z,10152.00
2017-09-04T10:02:50.539Z,10120.00
2017-09-04T10:03:57.009Z,10132.00
2017-09-04T10:05:02.544Z,10264.00
2017-09-04T10:06:07.131Z,10324.00
2017-09-04T10:07:12.568Z,10356.00
2017-09-04T10:08:18.979Z,10380.00
2017-09-04T10:09:24.570Z,10432.00
2017-09-04T10:10:30.050Z,10524.00
2017-09-04T10:11:34.773Z,10628.00
2017-09-04T10:12:40.315Z,10784.00
2017-09-04T10:13:46.431Z,10900.00
2017-09-04T10:14:51.475Z,10916.00
2017-09-04T10:15:56.930Z,10900.00
2017-09-04T10:17:02.481Z,10956.00
2017-09-04T10:18:09.409Z,11080.00
2017-09-04T10:19:13.622Z,11032.00
2017-09-04T10:20:19.077Z,11004.00
2017-09-04T10:21:24.592Z,11024.00
2017-09-04T10:22:30.197Z,11080.00
2017-09-04T10:23:36.420Z,11100.00
2017-09-04T10:24:42.197Z,11116.00
2017-09-04T10:25:47.619Z,11212.00
2017-09-04T10:26:52.225Z,11312.00
2017-09-04T10:27:59.543Z,11440.00
2017-09-04T10:29:03.423Z,11516.00
2017-09-04T10:30:08.986Z,11644.00
2017-09-04T10:31:14.517Z,11816.00
2017-09-04T10:32:20.028Z,12104.00
2017-09-04T10:33:26.019Z,12420.00
2017-09-04T10:34:31.029Z,12544.00
2017-09-04T10:35:36.572Z,12512.00
2017-09-04T10:36:42.097Z,12464.00
2017-09-04T10:37:47.709Z,12500.00
2017-09-04T10:38:53.159Z,12536.00
2017-09-04T10:39:59.531Z,12580.00
2017-09-04T10:41:04.249Z,12668.00
2017-09-04T10:42:10.449Z,12884.00
2017-09-04T10:43:16.191Z,13120.00
2017-09-04T10:44:21.455Z,13364.00
2017-09-04T10:45:26.448Z,13556.00
2017-09-04T10:46:31.958Z,13652.00
2017-09-04T10:47:37.483Z,13716.00
2017-09-04T10:48:43.005Z,13652.00
2017-09-04T10:49:48.585Z,13656.00
2017-09-04T10:50:54.968Z,13644.00
2017-09-04T10:52:00.983Z,13724.00
2017-09-04T10:53:05.208Z,13804.00
2017-09-04T10:54:10.636Z,14024.00
2017-09-04T10:55:16.255Z,14264.00
2017-09-04T10:56:23.080Z,14648.00
2017-09-04T10:57:27.283Z,15424.00
2017-09-04T10:58:33.694Z,16516.00
2017-09-04T10:59:39.107Z,17520.00
2017-09-04T11:00:43.974Z,18372.00
2017-09-04T11:01:49.450Z,18292.00
2017-09-04T11:02:54.954Z,17800.00
2017-09-04T11:04:01.232Z,16936.00
2017-09-04T11:05:06.016Z,17160.00
2017-09-04T11:06:12.994Z,18128.00
2017-09-04T11:07:17.493Z,20192.00
2017-09-04T11:08:24.996Z,22656.00
2017-09-04T11:09:28.261Z,23584.00
2017-09-04T11:10:34.693Z,23200.00
2017-09-04T11:11:39.335Z,22624.00
2017-09-04T11:12:45.509Z,22464.00
2017-09-04T11:13:51.032Z,21920.00
2017-09-04T11:14:55.848Z,22560.00
2017-09-04T11:16:02.152Z,22848.00
2017-09-04T11:17:06.860Z,22304.00
2017-09-04T11:18:13.140Z,22272.00
2017-09-04T11:19:18.759Z,21472.00
2017-09-04T11:20:24.033Z,20992.00
2017-09-04T11:21:29.126Z,20288.00
2017-09-04T11:22:34.640Z,20128.00
2017-09-04T11:23:40.153Z,19776.00
2017-09-04T11:24:46.533Z,19680.00
2017-09-04T11:25:51.374Z,19840.00
2017-09-04T11:26:56.800Z,20768.00
2017-09-04T11:28:03.036Z,62016.00
2017-09-04T11:29:07.837Z,92960.00
2017-09-04T11:30:14.135Z,92416.00
2017-09-04T11:31:18.889Z,92992.00
2017-09-04T11:32:24.416Z,90720.00
2017-09-04T11:33:30.716Z,90400.00
2017-09-04T11:34:35.604Z,92576.00
2017-09-04T11:35:41.545Z,93920.00
2017-09-04T11:36:46.618Z,97024.00
2017-09-04T11:37:52.094Z,97312.00
2017-09-04T11:38:59.215Z,95104.00
2017-09-04T11:40:03.652Z,94016.00
2017-09-04T11:41:08.789Z,92320.00
2017-09-04T11:42:15.231Z,38208.00
2017-09-04T11:43:19.931Z,79520.00
2017-09-04T11:44:26.166Z,68256.00
2017-09-04T11:45:30.919Z,79296.00
2017-09-04T11:46:36.399Z,87328.00
2017-09-04T11:47:42.779Z,87520.00
2017-09-04T11:48:47.507Z,90176.00
2017-09-04T11:49:53.084Z,90080.00
2017-09-04T11:50:58.485Z,89504.00
2017-09-04T11:52:04.093Z,87552.00
2017-09-04T11:53:10.624Z,88480.00
2017-09-04T11:54:15.724Z,89376.00
2017-09-04T11:55:20.707Z,90432.00
2017-09-04T11:56:26.250Z,88608.00
2017-09-04T11:57:31.778Z,86720.00
2017-09-04T11:58:37.449Z,57056.00
2017-09-04T11:59:42.848Z,88448.00
2017-09-04T12:00:49.188Z,29760.00
2017-09-04T12:01:53.960Z,23040.00
2017-09-04T12:02:59.540Z,88704.00
2017-09-04T12:04:04.926Z,85856.00
2017-09-04T12:05:12.099Z,45088.00
2017-09-04T12:06:16.791Z,85632.00
2017-09-04T12:07:21.606Z,54592.00
2017-09-04T12:08:27.725Z,28736.00
2017-09-04T12:09:32.677Z,89024.00
2017-09-04T12:10:39.607Z,93536.00
2017-09-04T12:11:43.664Z,30784.00
2017-09-04T12:12:49.233Z,86528.00
2017-09-04T12:13:55.614Z,87296.00
2017-09-04T12:15:00.417Z,87744.00
2017-09-04T12:16:05.896Z,90304.00
2017-09-04T12:17:11.459Z,92640.00
2017-09-04T12:18:17.624Z,90880.00
2017-09-04T12:19:23.331Z,91296.00
2017-09-04T12:20:27.935Z,87520.00
2017-09-04T12:21:33.546Z,87456.00
2017-09-04T12:22:39.630Z,88384.00
2017-09-04T12:23:44.609Z,34016.00
2017-09-04T12:24:50.633Z,89568.00
2017-09-04T12:25:55.698Z,93632.00
2017-09-04T12:27:01.231Z,90048.00
2017-09-04T12:28:06.799Z,88544.00
2017-09-04T12:29:12.261Z,90432.00
2017-09-04T12:30:18.360Z,90368.00
2017-09-04T12:31:24.146Z,89472.00
2017-09-04T12:32:29.785Z,90880.00
2017-09-04T12:33:34.904Z,89888.00
2017-09-04T12:34:40.068Z,96064.00
2017-09-04T12:35:45.541Z,111072.00
2017-09-04T12:36:51.887Z,112160.00
2017-09-04T12:37:57.307Z,112768.00
2017-09-04T12:39:02.070Z,114880.00
2017-09-04T12:40:08.159Z,116096.00
2017-09-04T12:41:13.106Z,118240.00
2017-09-04T12:42:18.743Z,118208.00
2017-09-04T12:43:25.167Z,117536.00
2017-09-04T12:44:29.779Z,112896.00
2017-09-04T12:45:35.793Z,111264.00
2017-09-04T12:46:40.900Z,112896.00
2017-09-04T12:47:46.394Z,113056.00
2017-09-04T12:48:51.907Z,107200.00
2017-09-04T12:50:00.189Z,110176.00
2017-09-04T12:51:02.989Z,92608.00
2017-09-04T12:52:08.626Z,96224.00
2017-09-04T12:53:14.858Z,111712.00
2017-09-04T12:54:19.609Z,21120.00
2017-09-04T12:55:25.833Z,22240.00
2017-09-04T12:56:31.290Z,28864.00
2017-09-04T12:57:36.693Z,20672.00
2017-09-04T12:58:41.821Z,65952.00
2017-09-04T12:59:47.724Z,113056.00
2017-09-04T13:00:54.700Z,114016.00
2017-09-04T13:01:58.304Z,116896.00
2017-09-04T13:03:04.747Z,118080.00
2017-09-04T13:04:09.401Z,113728.00
2017-09-04T13:05:15.061Z,115104.00
2017-09-04T13:06:22.225Z,109568.00
2017-09-04T13:07:26.707Z,105696.00
2017-09-04T13:08:32.108Z,102720.00
2017-09-04T13:09:37.199Z,89824.00
2017-09-04T13:10:43.322Z,82592.00
2017-09-04T13:11:48.153Z,83168.00
2017-09-04T13:12:53.589Z,80064.00
2017-09-04T13:13:59.317Z,82304.00
2017-09-04T13:15:04.753Z,83200.00
2017-09-04T13:16:10.276Z,82240.00
2017-09-04T13:17:17.241Z,80224.00
2017-09-04T13:18:21.489Z,78144.00
2017-09-04T13:19:27.028Z,80768.00
2017-09-04T13:20:32.505Z,74752.00
2017-09-04T13:21:37.913Z,76512.00
2017-09-04T13:22:43.549Z,24864.00
2017-09-04T13:23:49.069Z,20768.00
2017-09-04T13:24:56.155Z,21600.00
2017-09-04T13:26:00.093Z,64128.00
2017-09-04T13:27:05.668Z,20928.00
2017-09-04T13:28:11.881Z,19648.00
2017-09-04T13:29:17.768Z,23008.00
2017-09-04T13:30:22.295Z,44096.00
2017-09-04T13:31:27.814Z,47072.00